Time;durP1;ratioP1;P1;durP2;ratioP2;P2;SDS_P1;SDS_P2;PMS_P1;PMS_P2;Temp;Humidity;BMP_temperature;BMP_pressure;BME280_temperature;BME280_humidity;BME280_pressure;Samples;Min_cycle;Max_cycle;Signal;HPM_P1;HPM_P2
2021/04/30 00:01:01;;;;;;;9.30;6.45;;;5.40;99.90;;;;;;6247489;28;20119;-73
2021/04/30 00:04:02;;;;;;;7.00;6.43;;;5.40;99.90;;;;;;6247774;28;20124;-74
2021/04/30 00:07:04;;;;;;;8.27;7.38;;;5.40;99.90;;;;;;6248027;28;20050;-74
2021/04/30 00:10:06;;;;;;;8.00;7.20;;;5.30;99.90;;;;;;6247241;28;20084;-73
2021/04/30 00:13:08;;;;;;;8.07;7.22;;;5.30;99.90;;;;;;6247287;28;20084;-74
2021/04/30 00:16:11;;;;;;;8.23;6.40;;;5.30;99.90;;;;;;6247310;28;20037;-74
2021/04/30 00:19:13;;;;;;;7.47;6.80;;;5.20;99.90;;;;;;6247803;28;20049;-74
2021/04/30 00:22:14;;;;;;;9.48;8.57;;;5.20;99.90;;;;;;6247166;28;20131;-74
2021/04/30 00:25:16;;;;;;;9.90;7.85;;;5.10;99.90;;;;;;6247077;28;20045;-74
2021/04/30 00:28:17;;;;;;;11.45;9.30;;;5.20;99.90;;;;;;6246829;28;20455;-74
2021/04/30 00:31:19;;;;;;;9.70;8.70;;;5.10;99.90;;;;;;6264787;28;20069;-74
2021/04/30 00:34:21;;;;;;;7.80;7.10;;;5.10;99.90;;;;;;6270916;28;20124;-73
2021/04/30 00:37:22;;;;;;;9.32;8.25;;;5.00;99.90;;;;;;6271592;28;20121;-74
2021/04/30 00:40:23;;;;;;;12.02;7.95;;;4.90;99.90;;;;;;6271254;28;20562;-74
2021/04/30 00:43:25;;;;;;;8.52;7.72;;;4.80;99.90;;;;;;6272007;28;20603;-73
2021/04/30 00:46:27;;;;;;;8.65;7.78;;;4.80;99.90;;;;;;6271085;28;20128;-74
2021/04/30 00:49:28;;;;;;;8.13;7.28;;;4.70;99.90;;;;;;6271188;28;20126;-74
2021/04/30 00:52:30;;;;;;;9.45;8.57;;;4.80;99.90;;;;;;6271362;28;20513;-74
2021/04/30 00:55:31;;;;;;;8.55;7.35;;;4.70;99.90;;;;;;6271709;28;20076;-74
2021/04/30 00:58:32;;;;;;;10.95;8.27;;;4.70;99.90;;;;;;6270830;28;20142;-74
2021/04/30 01:01:35;;;;;;;14.63;9.73;;;4.60;99.90;;;;;;6271289;28;20045;-73
2021/04/30 01:04:36;;;;;;;8.95;8.05;;;4.60;99.90;;;;;;6271141;28;20125;-73
2021/04/30 01:07:37;;;;;;;11.10;8.15;;;4.60;99.90;;;;;;6271571;28;20075;-73
2021/04/30 01:10:39;;;;;;;12.57;7.60;;;4.50;99.90;;;;;;6271113;28;20096;-74
2021/04/30 01:13:40;;;;;;;14.00;9.88;;;4.50;99.90;;;;;;6270949;28;20179;-73
2021/04/30 01:16:43;;;;;;;9.32;7.93;;;4.40;99.90;;;;;;6270878;28;20172;-74
2021/04/30 01:19:44;;;;;;;13.48;9.63;;;4.40;99.90;;;;;;6270556;28;20570;-74
2021/04/30 01:22:49;;;;;;;9.10;8.20;;;4.40;99.90;;;;;;6271339;28;20132;-74
2021/04/30 01:25:50;;;;;;;8.63;7.60;;;4.30;99.90;;;;;;6270507;28;20506;-74
2021/04/30 01:28:52;;;;;;;10.00;9.00;;;4.30;99.90;;;;;;6270483;28;20525;-73
2021/04/30 01:31:53;;;;;;;10.38;9.27;;;4.20;99.90;;;;;;6270633;28;20139;-74
2021/04/30 01:34:55;;;;;;;9.43;8.57;;;4.20;99.90;;;;;;6271555;28;20080;-73
2021/04/30 01:37:58;;;;;;;10.80;8.93;;;4.10;99.90;;;;;;6270643;28;20115;-73
2021/04/30 01:40:59;;;;;;;10.35;9.32;;;4.00;99.90;;;;;;6270419;28;20128;-73
2021/04/30 01:44:01;;;;;;;10.23;9.18;;;4.10;99.90;;;;;;6270628;28;20476;-73
2021/04/30 01:47:02;;;;;;;10.93;9.82;;;4.10;99.90;;;;;;6273365;28;20140;-74
2021/04/30 01:50:05;;;;;;;11.30;10.30;;;4.00;99.90;;;;;;6275202;28;20541;-74
2021/04/30 01:53:08;;;;;;;17.23;10.13;;;4.00;99.90;;;;;;6275569;28;20139;-74
2021/04/30 01:56:11;;;;;;;15.68;9.75;;;4.00;99.90;;;;;;6275264;28;20524;-74
2021/04/30 01:59:12;;;;;;;10.00;8.68;;;4.00;99.90;;;;;;6275451;28;20136;-73
2021/04/30 02:02:13;;;;;;;10.60;9.50;;;4.00;99.90;;;;;;6275090;28;20179;-73
2021/04/30 02:05:15;;;;;;;10.00;9.00;;;4.10;99.90;;;;;;6275223;28;20135;-74
2021/04/30 02:08:18;;;;;;;10.35;8.20;;;4.20;99.90;;;;;;6275593;28;20132;-73
2021/04/30 02:11:19;;;;;;;11.77;9.90;;;4.20;99.90;;;;;;6275363;28;20080;-73
2021/04/30 02:14:21;;;;;;;10.18;9.27;;;4.20;99.90;;;;;;6275086;28;20076;-73
2021/04/30 02:17:22;;;;;;;9.50;8.37;;;4.10;99.90;;;;;;6274609;28;20146;-73
2021/04/30 02:20:25;;;;;;;14.10;9.77;;;4.10;99.90;;;;;;6274269;28;20045;-73
2021/04/30 02:23:27;;;;;;;9.73;8.50;;;4.10;99.90;;;;;;6275402;28;20073;-73
2021/04/30 02:26:29;;;;;;;11.00;9.90;;;4.00;99.90;;;;;;6274333;28;20045;-73
2021/04/30 02:29:31;;;;;;;10.50;9.40;;;4.00;99.90;;;;;;6274179;28;20056;-74
2021/04/30 02:32:33;;;;;;;10.25;8.88;;;3.90;99.90;;;;;;6274509;28;20041;-74
2021/04/30 02:35:37;;;;;;;12.17;9.83;;;3.80;99.90;;;;;;6274541;28;20510;-74
2021/04/30 02:38:39;;;;;;;10.83;9.73;;;3.80;99.90;;;;;;6274605;28;20140;-73
2021/04/30 02:41:40;;;;;;;9.00;8.10;;;3.80;99.90;;;;;;6274133;28;20045;-73
2021/04/30 02:44:42;;;;;;;9.83;8.83;;;3.80;99.90;;;;;;6274207;28;20099;-73
2021/04/30 02:47:46;;;;;;;10.48;9.38;;;3.90;99.90;;;;;;6274396;28;20130;-73
2021/04/30 02:50:48;;;;;;;9.73;8.73;;;4.00;99.90;;;;;;6274986;28;20159;-73
2021/04/30 02:53:50;;;;;;;10.00;9.00;;;4.00;99.90;;;;;;6274085;28;20049;-73
2021/04/30 02:56:51;;;;;;;10.63;8.70;;;4.10;99.90;;;;;;6313679;22;20131;-76
2021/04/30 02:59:52;;;;;;;10.53;9.20;;;4.10;99.90;;;;;;6274132;28;20136;-77
2021/04/30 03:02:54;;;;;;;9.60;8.60;;;4.20;99.90;;;;;;6275640;28;20517;-77
2021/04/30 03:05:56;;;;;;;8.80;7.90;;;4.20;99.90;;;;;;6274582;28;20045;-77
2021/04/30 03:08:59;;;;;;;10.30;9.03;;;4.20;99.90;;;;;;6274425;28;20072;-78
2021/04/30 03:12:01;;;;;;;9.23;8.23;;;4.20;99.90;;;;;;6275196;28;20041;-77
2021/04/30 03:15:03;;;;;;;10.27;9.27;;;4.20;99.90;;;;;;6275372;28;20080;-77
2021/04/30 03:18:05;;;;;;;10.50;9.05;;;4.40;99.90;;;;;;6274337;28;20132;-77
2021/04/30 03:21:06;;;;;;;10.70;8.60;;;4.50;99.90;;;;;;6274169;28;20510;-77
2021/04/30 03:24:09;;;;;;;13.07;10.87;;;4.50;99.90;;;;;;6274381;28;20044;-77
2021/04/30 03:27:11;;;;;;;11.18;9.20;;;4.60;99.90;;;;;;6274679;28;20095;-78
2021/04/30 03:30:14;;;;;;;11.80;10.23;;;4.70;99.90;;;;;;6274320;28;20128;-77
2021/04/30 03:33:15;;;;;;;11.55;10.40;;;4.80;99.90;;;;;;6274301;28;20072;-77
2021/04/30 03:36:16;;;;;;;10.23;9.23;;;4.90;99.90;;;;;;6274714;28;20446;-77
2021/04/30 03:39:19;;;;;;;13.05;11.02;;;4.90;99.90;;;;;;6274672;28;20509;-77
2021/04/30 03:42:20;;;;;;;9.48;8.57;;;5.10;99.90;;;;;;6276820;28;20110;-78
2021/04/30 03:45:21;;;;;;;9.75;8.82;;;5.10;99.90;;;;;;6275529;28;20521;-77
2021/04/30 03:48:24;;;;;;;11.15;9.98;;;5.20;99.90;;;;;;6277272;28;20041;-77
2021/04/30 03:51:26;;;;;;;14.80;11.18;;;5.20;99.90;;;;;;6276431;28;20064;-77
2021/04/30 03:54:28;;;;;;;10.82;9.73;;;5.20;99.90;;;;;;6278983;28;20179;-78
2021/04/30 03:57:29;;;;;;;11.27;10.10;;;5.30;99.90;;;;;;6277841;28;20095;-77
2021/04/30 04:00:31;;;;;;;11.45;10.07;;;5.40;99.90;;;;;;6274556;28;20095;-78
2021/04/30 04:03:32;;;;;;;11.20;10.10;;;5.40;99.90;;;;;;6274753;28;20084;-77
2021/04/30 04:06:33;;;;;;;13.95;11.50;;;5.50;99.90;;;;;;6274155;28;20506;-77
2021/04/30 04:09:35;;;;;;;13.30;10.63;;;5.50;99.90;;;;;;6273061;28;20061;-77
2021/04/30 04:12:37;;;;;;;11.27;9.90;;;5.50;99.90;;;;;;6273422;28;20076;-77
2021/04/30 04:15:38;;;;;;;12.75;10.40;;;5.50;99.90;;;;;;6273274;28;20049;-77
2021/04/30 04:18:39;;;;;;;12.40;11.10;;;5.60;99.90;;;;;;6273564;28;20092;-77
2021/04/30 04:21:41;;;;;;;15.70;9.52;;;5.70;99.90;;;;;;6273514;28;20133;-77
2021/04/30 04:24:43;;;;;;;15.50;14.02;;;5.90;99.90;;;;;;6274335;28;20124;-77
2021/04/30 04:27:44;;;;;;;13.90;12.20;;;5.90;99.90;;;;;;6272823;28;20456;-77
2021/04/30 04:30:46;;;;;;;14.10;11.18;;;6.00;99.90;;;;;;6272617;28;20060;-77
2021/04/30 04:33:47;;;;;;;12.23;10.90;;;6.10;99.90;;;;;;6272821;28;20051;-76
2021/04/30 04:36:49;;;;;;;10.88;9.75;;;6.10;99.90;;;;;;6272448;28;20155;-77
2021/04/30 04:39:51;;;;;;;11.15;9.93;;;6.30;99.90;;;;;;6272217;28;20073;-76
2021/04/30 04:42:53;;;;;;;17.10;10.85;;;6.30;99.90;;;;;;6273552;28;20554;-77
2021/04/30 04:45:54;;;;;;;11.95;10.55;;;6.40;99.90;;;;;;6272433;28;20095;-76
2021/04/30 04:48:55;;;;;;;11.48;10.38;;;6.50;99.90;;;;;;6272853;28;20128;-76
2021/04/30 04:51:57;;;;;;;11.80;10.00;;;6.50;99.90;;;;;;6272812;28;20132;-76
2021/04/30 04:54:59;;;;;;;12.40;9.93;;;6.60;99.90;;;;;;6273614;28;20142;-76
2021/04/30 04:58:01;;;;;;;12.20;10.80;;;6.70;99.90;;;;;;6275353;28;20084;-77
2021/04/30 05:01:04;;;;;;;12.07;10.88;;;6.80;99.90;;;;;;6276070;28;20132;-76
2021/04/30 05:04:05;;;;;;;10.27;9.00;;;6.80;99.90;;;;;;6276654;28;20520;-76
2021/04/30 05:07:07;;;;;;;12.95;11.75;;;6.80;99.90;;;;;;6277120;28;20597;-76
2021/04/30 05:10:10;;;;;;;11.63;10.35;;;6.80;99.70;;;;;;6287358;28;20048;-77
2021/04/30 05:13:12;;;;;;;11.43;9.43;;;6.80;99.60;;;;;;6271717;28;20143;-77
2021/04/30 05:16:13;;;;;;;10.75;9.52;;;7.00;99.10;;;;;;6272072;28;20132;-77
2021/04/30 05:19:15;;;;;;;13.70;10.55;;;7.00;98.70;;;;;;6272738;28;20049;-76
2021/04/30 05:22:16;;;;;;;12.98;10.52;;;7.10;97.90;;;;;;6271871;28;20124;-77
2021/04/30 05:25:18;;;;;;;12.27;9.63;;;7.10;97.70;;;;;;6272085;28;20045;-76
2021/04/30 05:28:20;;;;;;;11.65;10.45;;;7.20;97.00;;;;;;6271644;28;20663;-76
2021/04/30 05:31:21;;;;;;;14.18;12.02;;;7.20;96.60;;;;;;6271911;28;20502;-76
2021/04/30 05:34:22;;;;;;;11.85;10.65;;;7.30;96.70;;;;;;6272187;28;20187;-76
2021/04/30 05:37:24;;;;;;;10.80;9.35;;;7.30;96.50;;;;;;6271612;28;20048;-76
2021/04/30 05:40:26;;;;;;;11.98;10.85;;;7.40;95.70;;;;;;6271802;28;20446;-77
2021/04/30 05:43:27;;;;;;;11.63;9.98;;;7.50;95.20;;;;;;6272832;28;20136;-76
2021/04/30 05:46:29;;;;;;;11.50;10.00;;;7.50;94.70;;;;;;6270823;28;20072;-76
2021/04/30 05:49:30;;;;;;;15.15;10.10;;;7.50;94.60;;;;;;6270833;28;20063;-76
2021/04/30 05:52:31;;;;;;;13.07;9.88;;;7.50;94.20;;;;;;6271123;28;20454;-76
2021/04/30 05:55:34;;;;;;;12.43;10.43;;;7.50;93.90;;;;;;6271672;28;20628;-77
2021/04/30 05:58:35;;;;;;;14.77;9.82;;;7.50;93.40;;;;;;6271535;28;20726;-76
2021/04/30 06:01:36;;;;;;;11.98;10.77;;;7.50;93.30;;;;;;6272651;28;20122;-77
2021/04/30 06:04:37;;;;;;;13.95;12.35;;;7.60;93.20;;;;;;6257959;28;20087;-77
2021/04/30 06:07:39;;;;;;;16.77;11.98;;;7.60;91.90;;;;;;6270857;28;20135;-76
2021/04/30 06:10:41;;;;;;;13.05;11.75;;;7.60;91.60;;;;;;6271366;28;20048;-75
2021/04/30 06:13:42;;;;;;;14.82;12.35;;;7.60;91.30;;;;;;6270383;28;20068;-76
2021/04/30 06:16:43;;;;;;;13.73;12.30;;;7.70;90.70;;;;;;6271837;28;20052;-76
2021/04/30 06:19:45;;;;;;;13.40;11.35;;;7.80;90.30;;;;;;6270197;28;20429;-76
2021/04/30 06:22:47;;;;;;;12.75;11.35;;;7.80;89.90;;;;;;6270963;28;20136;-76
2021/04/30 06:25:50;;;;;;;12.70;10.63;;;7.80;89.20;;;;;;6270999;28;20053;-76
2021/04/30 06:28:51;;;;;;;19.90;12.98;;;7.90;89.10;;;;;;6270856;28;20068;-76
2021/04/30 06:31:52;;;;;;;16.10;12.98;;;7.80;88.80;;;;;;6271026;28;20053;-76
2021/04/30 06:34:54;;;;;;;12.70;10.95;;;8.00;88.40;;;;;;6276230;28;20045;-76
2021/04/30 06:37:55;;;;;;;16.30;12.48;;;8.00;87.90;;;;;;6275989;28;20122;-76
2021/04/30 06:40:57;;;;;;;14.35;11.50;;;8.20;87.10;;;;;;6275091;28;20048;-77
2021/04/30 06:43:59;;;;;;;14.02;12.15;;;8.20;85.90;;;;;;6275795;28;20119;-76
2021/04/30 06:47:00;;;;;;;14.73;11.73;;;8.20;85.10;;;;;;6275396;28;20521;-76
2021/04/30 06:50:02;;;;;;;14.52;12.50;;;8.30;83.60;;;;;;6274692;28;20136;-76
2021/04/30 06:53:03;;;;;;;12.38;11.05;;;8.30;83.70;;;;;;6275091;28;20044;-76
2021/04/30 06:56:05;;;;;;;14.18;12.30;;;8.30;83.30;;;;;;6275514;28;20502;-76
2021/04/30 06:59:07;;;;;;;20.88;11.35;;;8.30;81.70;;;;;;6275021;28;20052;-76
2021/04/30 07:02:08;;;;;;;13.52;12.10;;;8.30;82.00;;;;;;6274826;28;20457;-76
2021/04/30 07:05:11;;;;;;;14.20;12.70;;;8.30;82.70;;;;;;6274589;28;20458;-76
2021/04/30 07:08:12;;;;;;;12.48;11.18;;;8.30;83.10;;;;;;6274916;28;20136;-77
2021/04/30 07:11:14;;;;;;;12.48;11.25;;;8.50;83.10;;;;;;6275152;28;20135;-76
2021/04/30 07:14:16;;;;;;;17.75;13.07;;;8.50;81.40;;;;;;6274811;28;20243;-77
2021/04/30 07:17:17;;;;;;;15.82;12.30;;;8.40;81.10;;;;;;6274107;28;20068;-76
2021/04/30 07:20:18;;;;;;;15.07;11.88;;;8.40;81.40;;;;;;6274387;28;20048;-76
2021/04/30 07:23:20;;;;;;;14.07;10.82;;;8.40;81.60;;;;;;6274795;28;20083;-77
2021/04/30 07:26:22;;;;;;;13.57;11.63;;;8.50;82.20;;;;;;6274245;28;20076;-76
2021/04/30 07:29:23;;;;;;;19.77;13.68;;;8.40;82.40;;;;;;6273926;28;20045;-77
2021/04/30 07:32:25;;;;;;;21.65;13.95;;;8.30;82.80;;;;;;6274865;28;20077;-76
2021/04/30 07:35:26;;;;;;;14.73;13.13;;;8.00;85.10;;;;;;6274769;28;20045;-77
2021/04/30 07:38:28;;;;;;;17.58;14.40;;;7.90;88.20;;;;;;6273721;28;20172;-77
2021/04/30 07:41:30;;;;;;;18.85;14.25;;;7.80;89.10;;;;;;6273846;28;20087;-77
2021/04/30 07:44:31;;;;;;;18.13;14.35;;;7.80;90.10;;;;;;6243981;28;20056;-76
2021/04/30 07:47:33;;;;;;;16.73;14.48;;;7.80;90.70;;;;;;6273895;28;20132;-76
2021/04/30 07:50:34;;;;;;;17.38;15.57;;;7.80;91.20;;;;;;6265684;28;20068;-77
2021/04/30 07:53:36;;;;;;;19.85;15.00;;;7.90;90.90;;;;;;6272754;28;20055;-76
2021/04/30 07:56:38;;;;;;;21.45;16.27;;;8.00;92.30;;;;;;6274469;28;20065;-77
2021/04/30 07:59:40;;;;;;;26.85;16.67;;;8.10;92.80;;;;;;6273270;28;20505;-77
2021/04/30 08:02:41;;;;;;;16.17;14.48;;;8.10;93.10;;;;;;6260934;28;20132;-77
2021/04/30 08:05:42;;;;;;;17.52;15.73;;;8.10;93.60;;;;;;6248667;28;20061;-78
2021/04/30 08:08:44;;;;;;;18.77;16.92;;;8.10;94.20;;;;;;6249415;28;20120;-76
2021/04/30 08:11:46;;;;;;;22.65;15.85;;;8.20;95.00;;;;;;6249068;28;20085;-76
2021/04/30 08:14:47;;;;;;;21.40;15.45;;;8.20;94.80;;;;;;6269383;28;20131;-77
2021/04/30 08:17:49;;;;;;;18.08;16.20;;;8.20;95.20;;;;;;6274030;28;20136;-77
2021/04/30 08:20:50;;;;;;;26.95;20.67;;;8.20;95.40;;;;;;6274093;28;20083;-77
2021/04/30 08:23:51;;;;;;;24.63;21.20;;;8.10;96.30;;;;;;6273637;28;20131;-77
2021/04/30 08:26:53;;;;;;;23.92;21.58;;;8.00;96.70;;;;;;6274797;28;20049;-77
2021/04/30 08:29:55;;;;;;;28.63;21.70;;;7.80;98.20;;;;;;6275043;28;20085;-77
2021/04/30 08:32:56;;;;;;;26.33;18.58;;;7.70;99.90;;;;;;6273688;28;20124;-78
2021/04/30 08:35:57;;;;;;;29.13;19.55;;;7.60;99.90;;;;;;6273875;28;20045;-78
2021/04/30 08:38:59;;;;;;;24.45;20.67;;;7.60;99.90;;;;;;6275363;28;20091;-77
2021/04/30 08:42:01;;;;;;;24.33;21.48;;;7.60;99.90;;;;;;6277680;28;20506;-78
2021/04/30 08:45:06;;;;;;;35.50;25.77;;;7.50;99.90;;;;;;6278565;28;20124;-77
2021/04/30 08:48:10;;;;;;;35.25;28.45;;;7.50;99.90;;;;;;6277532;28;20041;-77
2021/04/30 08:51:11;;;;;;;29.95;23.05;;;7.50;99.90;;;;;;6274559;28;20092;-77
2021/04/30 08:54:15;;;;;;;39.15;25.17;;;7.40;99.90;;;;;;6272746;28;20418;-77
2021/04/30 08:57:24;;;;;;;30.83;25.38;;;7.40;99.90;;;;;;6275112;28;20106;-78
2021/04/30 09:00:26;;;;;;;;;;;7.40;99.90;;;;;;6280966;28;20049;-78
2021/04/30 09:03:28;;;;;;;34.15;24.13;;;7.40;99.90;;;;;;6271779;28;19947;-78
2021/04/30 09:06:34;;;;;;;31.88;23.58;;;7.40;99.90;;;;;;6253335;28;20149;-77
2021/04/30 09:09:35;;;;;;;30.30;23.88;;;7.50;99.90;;;;;;6251780;28;20080;-78
2021/04/30 09:12:38;;;;;;;32.38;25.65;;;7.60;99.90;;;;;;6247966;28;20120;-78
2021/04/30 09:15:41;;;;;;;32.50;25.35;;;7.70;99.90;;;;;;6248455;28;20140;-77
2021/04/30 09:18:49;;;;;;;29.85;23.08;;;7.70;99.90;;;;;;6255039;28;20073;-78
2021/04/30 09:21:58;;;;;;;32.80;25.52;;;7.70;99.90;;;;;;6250881;28;20072;-78
2021/04/30 09:25:02;;;;;;;32.80;26.45;;;7.70;99.90;;;;;;6251233;28;20052;-78
2021/04/30 09:28:14;;;;;;;31.65;26.30;;;7.60;99.90;;;;;;6251912;28;20124;-78
2021/04/30 09:31:32;;;;;;;33.72;27.77;;;7.70;99.90;;;;;;6250514;28;20138;-79
2021/04/30 09:34:35;;;;;;;28.55;23.63;;;7.80;99.90;;;;;;6251182;28;20096;-77
2021/04/30 09:37:41;;;;;;;32.72;24.10;;;7.80;99.90;;;;;;6252614;28;20137;-78
2021/04/30 09:40:43;;;;;;;39.72;28.50;;;7.80;99.90;;;;;;6251595;28;20076;-78
2021/04/30 09:43:48;;;;;;;34.08;26.77;;;7.90;99.90;;;;;;6252063;28;20132;-78
2021/04/30 09:46:49;;;;;;;31.58;25.90;;;7.90;99.90;;;;;;6253582;28;20053;-77
2021/04/30 09:49:52;;;;;;;40.67;27.02;;;7.80;99.90;;;;;;6254928;28;20042;-79
2021/04/30 09:52:55;;;;;;;31.90;25.48;;;7.70;99.90;;;;;;6258662;28;20049;-78
2021/04/30 09:56:02;;;;;;;34.25;27.10;;;7.70;99.90;;;;;;6256969;28;20045;-78
2021/04/30 09:59:04;;;;;;;41.47;27.60;;;7.70;99.90;;;;;;6259103;28;20080;-78
2021/04/30 10:02:08;;;;;;;38.47;28.60;;;7.60;99.90;;;;;;6257242;28;20045;-78
2021/04/30 10:05:13;;;;;;;42.45;33.03;;;7.50;99.90;;;;;;6261476;28;20049;-79
2021/04/30 10:08:15;;;;;;;43.20;29.83;;;7.50;99.90;;;;;;6282075;28;20052;-78
2021/04/30 10:11:30;;;;;;;43.00;32.03;;;7.60;99.90;;;;;;6290069;28;20053;-78
2021/04/30 10:14:32;;;;;;;45.20;31.05;;;7.60;99.90;;;;;;6282963;28;20128;-79
2021/04/30 10:17:34;;;;;;;50.42;32.30;;;7.60;99.90;;;;;;6284259;28;20459;-79
2021/04/30 10:20:36;;;;;;;53.25;31.92;;;7.60;99.90;;;;;;6285992;28;20044;-79
2021/04/30 10:23:37;;;;;;;47.20;32.50;;;7.60;99.90;;;;;;6287491;28;20041;-78
2021/04/30 10:26:39;;;;;;;48.42;32.88;;;7.50;99.90;;;;;;6284900;28;20053;-78
2021/04/30 10:29:43;;;;;;;56.58;34.53;;;7.50;99.90;;;;;;6284896;28;20526;-78
2021/04/30 10:32:49;;;;;;;50.78;33.15;;;7.40;99.90;;;;;;6282351;28;20064;-79
2021/04/30 10:35:57;;;;;;;52.35;34.45;;;7.40;99.90;;;;;;6281089;28;20572;-78
2021/04/30 10:39:01;;;;;;;50.80;28.33;;;7.40;99.90;;;;;;6281692;28;20069;-79
2021/04/30 10:42:09;;;;;;;55.03;33.60;;;7.50;99.90;;;;;;6285520;28;20451;-79
2021/04/30 10:45:14;;;;;;;54.85;34.35;;;7.40;99.90;;;;;;6281846;28;20353;-80
2021/04/30 10:48:15;;;;;;;46.75;32.05;;;7.50;99.90;;;;;;6280373;28;20095;-77
2021/04/30 10:51:16;;;;;;;53.97;33.50;;;7.40;99.90;;;;;;6281111;28;20049;-78
2021/04/30 10:54:26;;;;;;;60.30;36.63;;;7.30;99.90;;;;;;6280183;28;20044;-78
2021/04/30 10:57:27;;;;;;;70.65;40.10;;;7.30;99.90;;;;;;6280792;28;20072;-79
2021/04/30 11:00:38;;;;;;;62.22;37.83;;;7.30;99.90;;;;;;6280477;28;20131;-78
2021/04/30 11:03:39;;;;;;;56.45;36.38;;;7.40;99.90;;;;;;6279956;28;20049;-78
2021/04/30 11:06:43;;;;;;;50.10;35.63;;;7.40;99.90;;;;;;6269039;28;20112;-78
2021/04/30 11:09:44;;;;;;;47.65;33.13;;;7.50;99.90;;;;;;6255000;28;20107;-78
2021/04/30 11:12:53;;;;;;;62.25;37.72;;;7.30;99.90;;;;;;6255515;28;20080;-78
2021/04/30 11:15:58;;;;;;;57.10;37.33;;;7.30;99.90;;;;;;6255398;28;20065;-78
2021/04/30 11:19:01;;;;;;;62.17;36.60;;;7.30;99.90;;;;;;6255608;28;20045;-78
2021/04/30 11:22:13;;;;;;;60.30;36.40;;;7.20;99.90;;;;;;6255457;28;20064;-78
2021/04/30 11:25:15;;;;;;;55.63;36.78;;;7.30;99.90;;;;;;6256832;28;20128;-79
2021/04/30 11:28:17;;;;;;;54.55;32.33;;;7.40;99.90;;;;;;6253834;28;20056;-78
2021/04/30 11:31:27;;;;;;;45.88;31.73;;;7.40;99.90;;;;;;6255944;28;20081;-79
2021/04/30 11:34:28;;;;;;;47.17;31.85;;;7.30;99.90;;;;;;6256103;28;20124;-78
2021/04/30 11:37:31;;;;;;;48.10;30.65;;;7.30;99.90;;;;;;6253698;28;20071;-77
2021/04/30 11:40:32;;;;;;;56.08;31.02;;;7.30;99.90;;;;;;6255434;28;20045;-78
2021/04/30 11:43:34;;;;;;;43.65;27.20;;;7.40;99.90;;;;;;6254373;28;20125;-78
2021/04/30 11:46:38;;;;;;;47.30;30.08;;;7.40;99.90;;;;;;6254678;28;20136;-78
2021/04/30 11:49:40;;;;;;;42.10;27.08;;;7.40;99.90;;;;;;6256259;28;20083;-78
2021/04/30 11:52:45;;;;;;;39.67;28.60;;;7.50;99.90;;;;;;6254176;28;20052;-78
2021/04/30 11:55:47;;;;;;;42.15;28.35;;;7.50;99.90;;;;;;6253208;28;20080;-78
2021/04/30 11:58:50;;;;;;;36.47;26.15;;;7.70;99.90;;;;;;6254165;28;20046;-78
2021/04/30 12:01:55;;;;;;;37.28;25.85;;;7.80;99.90;;;;;;6255337;28;20503;-79
2021/04/30 12:04:57;;;;;;;35.67;25.80;;;7.80;99.90;;;;;;6253654;28;20045;-78
2021/04/30 12:07:59;;;;;;;36.22;25.33;;;7.80;99.90;;;;;;6261869;28;20449;-78
2021/04/30 12:11:00;;;;;;;32.42;24.05;;;7.60;99.90;;;;;;6278411;28;20135;-78
2021/04/30 12:14:05;;;;;;;36.75;25.30;;;7.80;99.90;;;;;;6278169;28;20120;-78
2021/04/30 12:17:07;;;;;;;33.85;24.38;;;7.80;99.90;;;;;;6273955;28;20114;-77
2021/04/30 12:20:11;;;;;;;32.17;22.90;;;7.80;99.90;;;;;;6273391;28;20041;-77
2021/04/30 12:23:14;;;;;;;31.90;24.15;;;8.00;99.90;;;;;;6275382;28;20107;-78
2021/04/30 12:26:15;;;;;;;33.65;24.33;;;8.20;99.90;;;;;;6274191;28;20257;-78
2021/04/30 12:29:16;;;;;;;35.55;20.70;;;8.10;99.90;;;;;;6274367;28;20064;-78
2021/04/30 12:32:26;;;;;;;30.15;21.52;;;8.10;99.90;;;;;;6273479;28;20109;-77
2021/04/30 12:35:28;;;;;;;26.95;20.55;;;8.10;99.90;;;;;;6273077;28;20514;-78
2021/04/30 12:38:30;;;;;;;25.70;20.08;;;8.10;99.90;;;;;;6273055;28;20127;-78
2021/04/30 12:41:35;;;;;;;21.70;18.35;;;8.20;99.90;;;;;;6274205;28;20076;-78
2021/04/30 12:44:36;;;;;;;23.40;20.60;;;8.20;99.90;;;;;;6273673;28;20116;-78
2021/04/30 12:47:39;;;;;;;25.27;18.58;;;8.10;99.90;;;;;;6275411;28;20143;-78
2021/04/30 12:50:41;;;;;;;25.85;19.48;;;8.00;99.90;;;;;;6277008;28;20502;-78
2021/04/30 12:53:44;;;;;;;25.15;19.20;;;7.90;99.90;;;;;;6275023;28;20153;-77
2021/04/30 12:56:53;;;;;;;32.22;20.90;;;7.90;99.90;;;;;;6271862;28;20399;-77
2021/04/30 12:59:58;;;;;;;27.23;21.95;;;7.80;99.90;;;;;;6271394;28;20414;-77
2021/04/30 13:03:00;;;;;;;28.75;22.02;;;7.90;99.90;;;;;;6273231;28;20087;-76
2021/04/30 13:06:02;;;;;;;27.10;21.58;;;8.00;99.90;;;;;;6273082;28;20592;-77
2021/04/30 13:09:05;;;;;;;26.50;18.88;;;8.20;99.90;;;;;;6259919;28;20128;-77
2021/04/30 13:12:08;;;;;;;25.98;20.67;;;8.40;99.90;;;;;;6272479;28;20041;-77
2021/04/30 13:15:10;;;;;;;23.80;18.10;;;8.40;99.90;;;;;;6273335;28;20064;-77
2021/04/30 13:18:12;;;;;;;28.67;21.50;;;8.50;99.90;;;;;;6273416;28;20163;-77
2021/04/30 13:21:16;;;;;;;22.17;19.77;;;8.50;99.90;;;;;;6275013;28;20048;-77
2021/04/30 13:24:20;;;;;;;23.23;19.00;;;8.60;99.90;;;;;;6274428;28;20071;-77
2021/04/30 13:27:21;;;;;;;24.42;18.92;;;8.60;99.90;;;;;;6276705;28;20218;-77
2021/04/30 13:30:33;;;;;;;21.50;17.85;;;8.60;99.90;;;;;;6281784;28;20048;-77
2021/04/30 13:33:38;;;;;;;20.40;18.23;;;8.70;99.90;;;;;;6277569;28;20041;-77
2021/04/30 13:36:53;;;;;;;24.35;17.33;;;8.70;99.90;;;;;;6271853;28;20052;-77
2021/04/30 13:40:01;;;;;;;24.48;18.48;;;8.80;99.90;;;;;;6271568;28;20044;-77
2021/04/30 13:43:05;;;;;;;22.27;19.40;;;9.00;99.90;;;;;;6275138;28;20048;-77
2021/04/30 13:46:11;;;;;;;19.92;16.95;;;9.10;99.90;;;;;;6276291;28;20442;-77
2021/04/30 13:49:13;;;;;;;26.77;20.80;;;9.20;99.90;;;;;;6276295;28;20063;-77
2021/04/30 13:52:15;;;;;;;30.20;19.58;;;9.20;99.90;;;;;;6278120;28;20127;-78
2021/04/30 13:55:16;;;;;;;22.67;17.40;;;9.30;99.90;;;;;;6277380;28;20080;-78
2021/04/30 13:58:18;;;;;;;17.98;15.55;;;9.30;99.90;;;;;;6277968;28;20148;-77
2021/04/30 14:01:19;;;;;;;19.73;17.65;;;9.30;99.90;;;;;;6282629;28;20151;-78
2021/04/30 14:04:21;;;;;;;19.23;16.73;;;9.30;99.90;;;;;;6278610;28;20055;-77
2021/04/30 14:07:23;;;;;;;20.90;16.02;;;9.40;99.90;;;;;;6279971;28;20484;-78
2021/04/30 14:10:24;;;;;;;19.02;15.93;;;9.40;99.90;;;;;;6277215;28;20049;-78
2021/04/30 14:13:25;;;;;;;29.85;18.95;;;9.40;99.90;;;;;;6263919;28;20653;-78
2021/04/30 14:16:27;;;;;;;22.60;18.02;;;9.40;99.90;;;;;;6258340;28;20115;-78
2021/04/30 14:19:29;;;;;;;23.45;18.83;;;9.50;99.90;;;;;;6257790;28;20136;-77
2021/04/30 14:22:30;;;;;;;23.92;18.98;;;9.50;99.90;;;;;;6261393;28;20069;-78
2021/04/30 14:25:33;;;;;;;26.15;18.77;;;9.40;99.90;;;;;;6259891;28;20128;-78
2021/04/30 14:28:34;;;;;;;24.13;20.85;;;9.50;99.90;;;;;;6264349;28;20045;-78
2021/04/30 14:31:36;;;;;;;21.55;17.05;;;9.70;99.90;;;;;;6265020;28;20053;-78
2021/04/30 14:34:38;;;;;;;20.95;17.98;;;10.00;99.90;;;;;;6259218;28;20073;-78
2021/04/30 14:37:39;;;;;;;19.70;15.43;;;10.20;99.90;;;;;;6264114;28;20056;-78
2021/04/30 14:40:41;;;;;;;21.27;18.05;;;10.30;99.90;;;;;;6262983;28;20065;-78
2021/04/30 14:43:42;;;;;;;18.27;14.77;;;10.50;99.90;;;;;;6265086;28;20391;-78
2021/04/30 14:46:43;;;;;;;18.10;16.20;;;10.70;99.90;;;;;;6261425;28;20542;-78
2021/04/30 14:49:46;;;;;;;15.02;13.50;;;10.80;99.90;;;;;;6268323;28;20095;-78
2021/04/30 14:52:47;;;;;;;20.48;15.30;;;10.90;99.90;;;;;;6256009;28;20519;-77
2021/04/30 14:55:49;;;;;;;16.23;14.43;;;11.00;99.70;;;;;;6250559;28;20054;-77
2021/04/30 14:58:50;;;;;;;16.00;14.35;;;11.00;99.00;;;;;;6251414;28;20049;-76
2021/04/30 15:01:52;;;;;;;18.55;16.55;;;10.90;97.60;;;;;;6250607;28;20582;-76
2021/04/30 15:04:54;;;;;;;20.73;14.05;;;10.90;98.00;;;;;;6251610;28;20049;-79
2021/04/30 15:07:56;;;;;;;24.25;17.90;;;11.10;99.90;;;;;;6251147;28;20069;-76
2021/04/30 15:10:58;;;;;;;21.58;18.75;;;11.40;99.10;;;;;;6252180;28;20045;-76
2021/04/30 15:14:00;;;;;;;15.18;13.65;;;11.40;96.00;;;;;;6250202;28;20053;-76
2021/04/30 15:17:01;;;;;;;17.33;15.25;;;11.20;95.00;;;;;;6249708;28;20128;-76
2021/04/30 15:20:05;;;;;;;14.15;12.82;;;11.00;94.60;;;;;;6251475;28;20665;-78
2021/04/30 15:23:07;;;;;;;16.25;14.65;;;10.90;95.30;;;;;;6254345;28;20132;-79
2021/04/30 15:26:08;;;;;;;17.77;15.95;;;10.80;95.30;;;;;;6251499;28;20045;-78
2021/04/30 15:29:10;;;;;;;17.67;15.73;;;10.80;94.50;;;;;;6249485;28;20116;-77
2021/04/30 15:32:11;;;;;;;20.42;15.43;;;10.70;95.20;;;;;;6249710;28;20053;-78
2021/04/30 15:35:14;;;;;;;15.82;14.15;;;10.70;95.00;;;;;;6251039;28;20570;-77
2021/04/30 15:38:15;;;;;;;27.55;20.23;;;10.60;95.10;;;;;;6249512;28;20557;-78
2021/04/30 15:41:16;;;;;;;17.67;15.18;;;10.60;95.00;;;;;;6251569;28;20053;-77